Nearby METAR Reports

 

KSJC - San Jose, California, USA
Distance from station: NØ 14km
Oppdatert: 27/02/2020 08:53
Few Clouds
Few Clouds
 Vind fra calm
Vind: Stille
Temperatur: 13°C
Duggpunkt: 5°C
Fuktighet: 59%
Barometer: 1024.7 hPa
Clouds: Few Clouds
Visibility: 16 km
Cloud details: Few Clouds 1524 m
Few Clouds 4572 m
2020/02/27 07:53 KSJC 270753Z 00000KT 10SM FEW050 FEW150 13/05 A3026 RMK AO2 SLP247 LAST T01330050 402500078 $
KNUQ - Moffett Nas/Mtn, California, USA
Distance from station: N 14km
Oppdatert: 21/11/2019 17:56
NOT Current

 
Barometer: 1011.2 hPa
2019/11/21 16:56 KNUQ 211656Z AUTO A2986 RMK AO2 SLP116 PWINO $
 
KPAO - Palo Alto, California, USA
Distance from station: NNV 23km
Oppdatert: 27/02/2020 05:47
NOT Current
Klart
Klart
 Vind fra calm
Vind: Stille
Temperatur: 13°C
Duggpunkt: 8°C
Fuktighet: 72%
Barometer: 1025.1 hPa
Clouds: Klart
Visibility: 16 km
2020/02/27 04:47 KPAO 270447Z 00000KT 10SM SKC 13/08 A3027 RMK LAST
KRHV - San Jose/Reid, California, USA
Distance from station: ØNØ 19km
Oppdatert: 25/02/2020 00:50
NOT Current
Klart
Klart
 Vind fra NV
Vind: NV 13 km/h
Temperatur: 20°C
Duggpunkt: 6°C
Fuktighet: 40%
Barometer: 1025.1 hPa
Clouds: Klart
Visibility: 16 km
2020/02/24 23:50 KRHV 242350Z 32007KT 10SM SKC 20/06 A3027
 
KOAK - Oakland, California, USA
Distance from station: NNV 50km
Oppdatert: 27/02/2020 08:53
Few Clouds
Few Clouds
 Vind fra calm
Vind: Stille
Temperatur: 15°C
Duggpunkt: 9°C
Fuktighet: 68%
Barometer: 1025.4 hPa
Clouds: Few Clouds
Visibility: 16 km
Cloud details: Few Clouds 6096 m
2020/02/27 07:53 KOAK 270753Z 00000KT 10SM FEW200 15/09 A3028 RMK AO2 SLP251 T01500089 402440072
KSQL - San Carlos Airpo, California, USA
Distance from station: NV 34km
Oppdatert: 27/02/2020 08:55
Klart
Klart
 Vind fra calm
Vind: Stille
Temperatur: 12°C
Duggpunkt: 4°C
Fuktighet: 58%
Barometer: 1025.4 hPa
Clouds: Klart
Visibility: 16 km
2020/02/27 07:55 KSQL 270755Z AUTO 00000KT 10SM CLR 12/04 A3028 RMK AO2
 
KSFO - San Francisco, California, USA
Distance from station: NV 49km
Oppdatert: 27/02/2020 07:56
Klart
Klart
 Vind fra V
Vind: V 6 km/h
Temperatur: 14°C
Duggpunkt: 4°C
Fuktighet: 51%
Barometer: 1024.7 hPa
Clouds: Klart
Visibility: 16 km
2020/02/27 06:56 KSFO 270656Z 28003KT 10SM CLR 14/04 A3026 RMK AO2 SLP248 T01440039
KE16 - San Martin, California, USA
Distance from station: ØSØ 43km
Oppdatert: 14/11/2019 10:35
NOT Current
Overskyet
Overskyet
 Vind fra SØ
Vind: SØ 11 km/h
Temperatur: 12°C
Duggpunkt: 10°C
Fuktighet: 88%
Barometer: 1017.6 hPa
Clouds: Overskyet
Visibility: 16 km
Cloud details: Overskyet 427 m
2019/11/14 09:35 KE16 140935Z AUTO 13006KT 10SM OVC014 12/10 A3005 RMK AO2
 
KWVI - Watsonville, California, USA
Distance from station: SSØ 44km
Oppdatert: 27/02/2020 08:53
Klart
Klart
 Vind fra N
Vind: N 7 km/h
Temperatur: 10°C
Wind Chill: 9°C
Duggpunkt: 2°C
Fuktighet: 58%
Barometer: 1024.7 hPa
Clouds: Klart
Visibility: 16 km
2020/02/27 07:53 KWVI 270753Z AUTO 35004KT 10SM CLR 10/02 A3026 RMK AO2 SLP247 T01000022 402560067
KHAF - Half Moon Bay, California, USA
Distance from station: VNV 50km
Oppdatert: 22/02/2020 19:00
NOT Current

 
2020/02/22 18:00 KHAF 221800Z AUTO RMK AO2 PWINO
 
KHWD - Hayward, California, USA
Distance from station: N 44km
Oppdatert: 27/02/2020 08:54
Klart
Klart
 Vind fra ØNØ
Vind: ØNØ 6 km/h
Temperatur: 11°C
Duggpunkt: 6°C
Fuktighet: 72%
Barometer: 1024.7 hPa
Clouds: Klart
Visibility: 16 km
2020/02/27 07:54 KHWD 270754Z 07003KT 10SM CLR 11/06 A3026 RMK AO2 SLP257 T01110056 402330083
KLVK - Livermore, California, USA
Distance from station: NNØ 51km
Oppdatert: 27/02/2020 08:53
Klart
Klart
 Vind fra calm
Vind: Stille
Temperatur: 10°C
Duggpunkt: 5°C
Fuktighet: 71%
Barometer: 1025.1 hPa
Clouds: Klart
Visibility: 16 km
2020/02/27 07:53 KLVK 270753Z AUTO 00000KT 10SM CLR 10/05 A3027 RMK AO2 SLP247 T01000050 402560044